Black River (Missouri), Williamsville (07062575)

StateMissouriLatestPoor (626 cfs)
RiverBlack RiverRatingObservedEstimated
Updated2020-09-22 23:30 (1 hour ago)Flood - The river is flooding. Obstacles can be treacherous or deadly. The river should be avoided at this stage for casual trips and definitely for the inexperienced. Trips should be attempted only with protective gear and equipment.Flood(none)4990
Discharge626 cfs (median: 559 cfs)High - The river is high and potentially dangerous, especially for the young and / or inexperienced. Normal stream obstacles are sometimes difficult to navigate. Extended distances can be attempted, but canoe travel may not be advisable.High(none)2640
Height3.71 feetGood - Conditions are ideal for a canoe or kayak. Boats typically will drag on fewer than one-quarter of riffles, if at all, and portages are unnecessary or rare. Normal float lengths can be attempted without a problem.Good(none)1928
TrendSteady (rising over 24 hours)Low - River is low but can still be floated. Some riffles are okay but most come with significant dragging and might need a portage. Float lengths should be reduced to accommodate low flow, dragging, and portages.Low(none)641
USGSExternal icon USGS Site (External icon Google Maps)Poor - River is too low to float comfortably. Most or all riffles will drag or must be portaged and some obstacles (such as slick shelf rock) cause undue problems. Avoid the river at this stage for casual paddling trips.Poor(none)289

Trending Data

Plot Image

Trips for Black River (Missouri), Williamsville (07062575)

DateStartEndDistanceConditionDischargeHeightFishingDetails

A total of 0 rows are displayed.

Condition Descriptions

Fishing Conditions

Fish Species

Notes

Classic Trip List

The classic River Trips application is still available for use. It is updated with the new system using a data retrofit. It is no longer maintained. The original River Trips application is no longer updated (as of 1 Dec 2016) but can be checked for errors or for the condition of the data before it was converted to the new system.

Gauge Data Table

ObservationHeightDischargeMaximum
Discharge
Minimum
Discharge
Mean
Discharge
P05P10P20P25P50
(Median)
P75P80P90P95
2020-09-22 23:30 3.71 626 2330 (2016) 405 (2014) 772 436 512 518 566 805 1010 2000
2020-09-22 22:30 3.71 626 2330 (2016) 405 (2014) 772 436 512 518 566 805 1010 2000
2020-09-22 21:30 3.71 626 2330 (2016) 405 (2014) 772 436 512 518 566 805 1010 2000
2020-09-22 20:30 3.71 626 2330 (2016) 405 (2014) 772 436 512 518 566 805 1010 2000
2020-09-22 19:30 3.71 626 2330 (2016) 405 (2014) 772 436 512 518 566 805 1010 2000
2020-09-22 18:30 3.71 626 2330 (2016) 405 (2014) 772 436 512 518 566 805 1010 2000
2020-09-22 17:30 3.71 626 2330 (2016) 405 (2014) 772 436 512 518 566 805 1010 2000
2020-09-22 16:30 3.71 626 2330 (2016) 405 (2014) 772 436 512 518 566 805 1010 2000
2020-09-22 15:30 3.71 626 2330 (2016) 405 (2014) 772 436 512 518 566 805 1010 2000
2020-09-22 14:30 3.71 626 2330 (2016) 405 (2014) 772 436 512 518 566 805 1010 2000
2020-09-22 13:30 3.71 626 2330 (2016) 405 (2014) 772 436 512 518 566 805 1010 2000
2020-09-22 12:30 3.70 620 2330 (2016) 405 (2014) 772 436 512 518 566 805 1010 2000
2020-09-22 11:30 3.70 620 2330 (2016) 405 (2014) 772 436 512 518 566 805 1010 2000
2020-09-22 10:30 3.70 620 2330 (2016) 405 (2014) 772 436 512 518 566 805 1010 2000
2020-09-22 09:30 3.70 620 2330 (2016) 405 (2014) 772 436 512 518 566 805 1010 2000
2020-09-22 08:30 3.70 620 2330 (2016) 405 (2014) 772 436 512 518 566 805 1010 2000
2020-09-22 07:30 3.69 615 2330 (2016) 405 (2014) 772 436 512 518 566 805 1010 2000
2020-09-22 06:30 3.69 615 2330 (2016) 405 (2014) 772 436 512 518 566 805 1010 2000
2020-09-22 05:30 3.69 615 2330 (2016) 405 (2014) 772 436 512 518 566 805 1010 2000
2020-09-22 04:30 3.69 615 2330 (2016) 405 (2014) 772 436 512 518 566 805 1010 2000
2020-09-22 03:30 3.69 615 2330 (2016) 405 (2014) 772 436 512 518 566 805 1010 2000
2020-09-22 02:30 3.69 615 2330 (2016) 405 (2014) 772 436 512 518 566 805 1010 2000
2020-09-22 01:30 3.68 610 2330 (2016) 405 (2014) 772 436 512 518 566 805 1010 2000
2020-09-22 00:30 3.68 610 2330 (2016) 405 (2014) 772 436 512 518 566 805 1010 2000
2020-09-21 23:30 3.67 604 2590 (2016) 408 (2014) 783 430 496 509 558 828 1000 2160
2020-09-21 22:30 3.66 599 2590 (2016) 408 (2014) 783 430 496 509 558 828 1000 2160
2020-09-21 21:30 3.66 599 2590 (2016) 408 (2014) 783 430 496 509 558 828 1000 2160
2020-09-21 20:30 3.65 594 2590 (2016) 408 (2014) 783 430 496 509 558 828 1000 2160
2020-09-21 19:30 3.63 583 2590 (2016) 408 (2014) 783 430 496 509 558 828 1000 2160
2020-09-21 18:30 3.62 578 2590 (2016) 408 (2014) 783 430 496 509 558 828 1000 2160
2020-09-21 17:30 3.60 568 2590 (2016) 408 (2014) 783 430 496 509 558 828 1000 2160
2020-09-21 16:30 3.58 557 2590 (2016) 408 (2014) 783 430 496 509 558 828 1000 2160
2020-09-21 15:30 3.56 547 2590 (2016) 408 (2014) 783 430 496 509 558 828 1000 2160
2020-09-21 14:30 3.56 547 2590 (2016) 408 (2014) 783 430 496 509 558 828 1000 2160
2020-09-21 13:30 3.56 547 2590 (2016) 408 (2014) 783 430 496 509 558 828 1000 2160
2020-09-21 12:30 3.56 547 2590 (2016) 408 (2014) 783 430 496 509 558 828 1000 2160
2020-09-21 11:30 3.56 547 2590 (2016) 408 (2014) 783 430 496 509 558 828 1000 2160
2020-09-21 10:30 3.56 547 2590 (2016) 408 (2014) 783 430 496 509 558 828 1000 2160
2020-09-21 09:30 3.55 542 2590 (2016) 408 (2014) 783 430 496 509 558 828 1000 2160
2020-09-21 08:30 3.55 542 2590 (2016) 408 (2014) 783 430 496 509 558 828 1000 2160
2020-09-21 07:30 3.55 542 2590 (2016) 408 (2014) 783 430 496 509 558 828 1000 2160
2020-09-21 06:30 3.55 542 2590 (2016) 408 (2014) 783 430 496 509 558 828 1000 2160
2020-09-21 05:30 3.55 542 2590 (2016) 408 (2014) 783 430 496 509 558 828 1000 2160
2020-09-21 04:30 3.55 542 2590 (2016) 408 (2014) 783 430 496 509 558 828 1000 2160
2020-09-21 03:30 3.56 547 2590 (2016) 408 (2014) 783 430 496 509 558 828 1000 2160
2020-09-21 02:30 3.56 547 2590 (2016) 408 (2014) 783 430 496 509 558 828 1000 2160
2020-09-21 01:30 3.56 547 2590 (2016) 408 (2014) 783 430 496 509 558 828 1000 2160
2020-09-21 00:30 3.56 547 2590 (2016) 408 (2014) 783 430 496 509 558 828 1000 2160
2020-09-20 23:30 3.56 547 1770 (2016) 413 (2014) 742 431 493 510 571 953 1070 1580
2020-09-20 22:30 3.56 547 1770 (2016) 413 (2014) 742 431 493 510 571 953 1070 1580
2020-09-20 21:30 3.56 547 1770 (2016) 413 (2014) 742 431 493 510 571 953 1070 1580
2020-09-20 20:30 3.56 547 1770 (2016) 413 (2014) 742 431 493 510 571 953 1070 1580
2020-09-20 19:30 3.57 552 1770 (2016) 413 (2014) 742 431 493 510 571 953 1070 1580
2020-09-20 18:30 3.57 552 1770 (2016) 413 (2014) 742 431 493 510 571 953 1070 1580
2020-09-20 17:30 3.57 552 1770 (2016) 413 (2014) 742 431 493 510 571 953 1070 1580
2020-09-20 16:30 3.57 552 1770 (2016) 413 (2014) 742 431 493 510 571 953 1070 1580
2020-09-20 15:30 3.57 552 1770 (2016) 413 (2014) 742 431 493 510 571 953 1070 1580
2020-09-20 14:30 3.58 557 1770 (2016) 413 (2014) 742 431 493 510 571 953 1070 1580
2020-09-20 13:30 3.57 552 1770 (2016) 413 (2014) 742 431 493 510 571 953 1070 1580
2020-09-20 12:30 3.57 552 1770 (2016) 413 (2014) 742 431 493 510 571 953 1070 1580
2020-09-20 11:30 3.57 552 1770 (2016) 413 (2014) 742 431 493 510 571 953 1070 1580
2020-09-20 10:30 3.58 557 1770 (2016) 413 (2014) 742 431 493 510 571 953 1070 1580
2020-09-20 09:30 3.57 552 1770 (2016) 413 (2014) 742 431 493 510 571 953 1070 1580
2020-09-20 08:30 3.57 552 1770 (2016) 413 (2014) 742 431 493 510 571 953 1070 1580
2020-09-20 07:30 3.57 552 1770 (2016) 413 (2014) 742 431 493 510 571 953 1070 1580
2020-09-20 06:30 3.57 552 1770 (2016) 413 (2014) 742 431 493 510 571 953 1070 1580
2020-09-20 05:30 3.57 552 1770 (2016) 413 (2014) 742 431 493 510 571 953 1070 1580
2020-09-20 04:30 3.57 552 1770 (2016) 413 (2014) 742 431 493 510 571 953 1070 1580
2020-09-20 03:30 3.58 557 1770 (2016) 413 (2014) 742 431 493 510 571 953 1070 1580
2020-09-20 02:30 3.58 557 1770 (2016) 413 (2014) 742 431 493 510 571 953 1070 1580
2020-09-20 01:30 3.58 557 1770 (2016) 413 (2014) 742 431 493 510 571 953 1070 1580
2020-09-20 00:30 3.58 557 1770 (2016) 413 (2014) 742 431 493 510 571 953 1070 1580
2020-09-19 23:30 3.58 557 1650 (2008) 423 (2014) 744 437 484 498 598 987 1080 1500
2020-09-19 22:30 3.58 557 1650 (2008) 423 (2014) 744 437 484 498 598 987 1080 1500
2020-09-19 21:30 3.58 557 1650 (2008) 423 (2014) 744 437 484 498 598 987 1080 1500
2020-09-19 20:30 3.59 562 1650 (2008) 423 (2014) 744 437 484 498 598 987 1080 1500
2020-09-19 19:30 3.59 562 1650 (2008) 423 (2014) 744 437 484 498 598 987 1080 1500
2020-09-19 18:30 3.59 562 1650 (2008) 423 (2014) 744 437 484 498 598 987 1080 1500
2020-09-19 17:30 3.59 562 1650 (2008) 423 (2014) 744 437 484 498 598 987 1080 1500
2020-09-19 16:30 3.59 562 1650 (2008) 423 (2014) 744 437 484 498 598 987 1080 1500
2020-09-19 15:30 3.59 562 1650 (2008) 423 (2014) 744 437 484 498 598 987 1080 1500
2020-09-19 14:30 3.60 568 1650 (2008) 423 (2014) 744 437 484 498 598 987 1080 1500
2020-09-19 13:30 3.60 568 1650 (2008) 423 (2014) 744 437 484 498 598 987 1080 1500
2020-09-19 12:30 3.60 568 1650 (2008) 423 (2014) 744 437 484 498 598 987 1080 1500
2020-09-19 11:30 3.60 568 1650 (2008) 423 (2014) 744 437 484 498 598 987 1080 1500
2020-09-19 10:30 3.60 568 1650 (2008) 423 (2014) 744 437 484 498 598 987 1080 1500
2020-09-19 09:30 3.60 568 1650 (2008) 423 (2014) 744 437 484 498 598 987 1080 1500
2020-09-19 08:30 3.60 568 1650 (2008) 423 (2014) 744 437 484 498 598 987 1080 1500
2020-09-19 07:30 3.60 568 1650 (2008) 423 (2014) 744 437 484 498 598 987 1080 1500
2020-09-19 06:30 3.61 573 1650 (2008) 423 (2014) 744 437 484 498 598 987 1080 1500
2020-09-19 05:30 3.61 573 1650 (2008) 423 (2014) 744 437 484 498 598 987 1080 1500
2020-09-19 04:30 3.61 573 1650 (2008) 423 (2014) 744 437 484 498 598 987 1080 1500
2020-09-19 03:30 3.62 578 1650 (2008) 423 (2014) 744 437 484 498 598 987 1080 1500
2020-09-19 02:30 3.62 578 1650 (2008) 423 (2014) 744 437 484 498 598 987 1080 1500
2020-09-19 01:30 3.63 583 1650 (2008) 423 (2014) 744 437 484 498 598 987 1080 1500
2020-09-19 00:30 3.63 583 1650 (2008) 423 (2014) 744 437 484 498 598 987 1080 1500
2020-09-18 23:30 3.64 589 2090 (2008) 437 (2014) 780 447 481 495 586 1010 1110 1800
2020-09-18 22:30 3.65 594 2090 (2008) 437 (2014) 780 447 481 495 586 1010 1110 1800
2020-09-18 21:30 3.66 599 2090 (2008) 437 (2014) 780 447 481 495 586 1010 1110 1800
2020-09-18 20:30 3.67 604 2090 (2008) 437 (2014) 780 447 481 495 586 1010 1110 1800
2020-09-18 19:30 3.69 615 2090 (2008) 437 (2014) 780 447 481 495 586 1010 1110 1800
2020-09-18 18:30 3.71 626 2090 (2008) 437 (2014) 780 447 481 495 586 1010 1110 1800
2020-09-18 17:30 3.73 637 2090 (2008) 437 (2014) 780 447 481 495 586 1010 1110 1800
2020-09-18 16:30 3.75 647 2090 (2008) 437 (2014) 780 447 481 495 586 1010 1110 1800
2020-09-18 15:30 3.76 653 2090 (2008) 437 (2014) 780 447 481 495 586 1010 1110 1800
2020-09-18 14:30 3.77 658 2090 (2008) 437 (2014) 780 447 481 495 586 1010 1110 1800
2020-09-18 13:30 3.77 658 2090 (2008) 437 (2014) 780 447 481 495 586 1010 1110 1800
2020-09-18 12:30 3.77 658 2090 (2008) 437 (2014) 780 447 481 495 586 1010 1110 1800
2020-09-18 11:30 3.77 658 2090 (2008) 437 (2014) 780 447 481 495 586 1010 1110 1800
2020-09-18 10:30 3.77 658 2090 (2008) 437 (2014) 780 447 481 495 586 1010 1110 1800
2020-09-18 09:30 3.77 658 2090 (2008) 437 (2014) 780 447 481 495 586 1010 1110 1800
2020-09-18 08:30 3.77 658 2090 (2008) 437 (2014) 780 447 481 495 586 1010 1110 1800
2020-09-18 07:30 3.77 658 2090 (2008) 437 (2014) 780 447 481 495 586 1010 1110 1800
2020-09-18 06:30 3.77 658 2090 (2008) 437 (2014) 780 447 481 495 586 1010 1110 1800
2020-09-18 05:30 3.77 658 2090 (2008) 437 (2014) 780 447 481 495 586 1010 1110 1800
2020-09-18 04:30 3.77 658 2090 (2008) 437 (2014) 780 447 481 495 586 1010 1110 1800
2020-09-18 03:30 3.77 658 2090 (2008) 437 (2014) 780 447 481 495 586 1010 1110 1800
2020-09-18 02:30 3.77 658 2090 (2008) 437 (2014) 780 447 481 495 586 1010 1110 1800
2020-09-18 01:30 3.77 658 2090 (2008) 437 (2014) 780 447 481 495 586 1010 1110 1800
2020-09-18 00:30 3.77 658 2090 (2008) 437 (2014) 780 447 481 495 586 1010 1110 1800
2020-09-17 23:30 3.77 658 2140 (2008) 440 (2014) 838 449 471 483 656 1080 1110 1830
2020-09-17 22:30 3.77 658 2140 (2008) 440 (2014) 838 449 471 483 656 1080 1110 1830
2020-09-17 21:30 3.78 664 2140 (2008) 440 (2014) 838 449 471 483 656 1080 1110 1830
2020-09-17 20:30 3.78 664 2140 (2008) 440 (2014) 838 449 471 483 656 1080 1110 1830
2020-09-17 19:30 3.78 664 2140 (2008) 440 (2014) 838 449 471 483 656 1080 1110 1830
2020-09-17 18:30 3.78 664 2140 (2008) 440 (2014) 838 449 471 483 656 1080 1110 1830
2020-09-17 17:30 3.78 664 2140 (2008) 440 (2014) 838 449 471 483 656 1080 1110 1830
2020-09-17 16:30 3.78 664 2140 (2008) 440 (2014) 838 449 471 483 656 1080 1110 1830
2020-09-17 15:30 3.78 664 2140 (2008) 440 (2014) 838 449 471 483 656 1080 1110 1830
2020-09-17 14:30 3.78 664 2140 (2008) 440 (2014) 838 449 471 483 656 1080 1110 1830
2020-09-17 13:30 3.78 664 2140 (2008) 440 (2014) 838 449 471 483 656 1080 1110 1830
2020-09-17 12:30 3.78 664 2140 (2008) 440 (2014) 838 449 471 483 656 1080 1110 1830
2020-09-17 11:30 3.78 664 2140 (2008) 440 (2014) 838 449 471 483 656 1080 1110 1830
2020-09-17 10:30 3.78 664 2140 (2008) 440 (2014) 838 449 471 483 656 1080 1110 1830
2020-09-17 09:30 3.78 664 2140 (2008) 440 (2014) 838 449 471 483 656 1080 1110 1830
2020-09-17 08:30 3.77 658 2140 (2008) 440 (2014) 838 449 471 483 656 1080 1110 1830
2020-09-17 07:30 3.77 658 2140 (2008) 440 (2014) 838 449 471 483 656 1080 1110 1830
2020-09-17 06:30 3.77 658 2140 (2008) 440 (2014) 838 449 471 483 656 1080 1110 1830
2020-09-17 05:30 3.77 658 2140 (2008) 440 (2014) 838 449 471 483 656 1080 1110 1830
2020-09-17 04:30 3.77 658 2140 (2008) 440 (2014) 838 449 471 483 656 1080 1110 1830
2020-09-17 03:30 3.77 658 2140 (2008) 440 (2014) 838 449 471 483 656 1080 1110 1830
2020-09-17 02:30 3.77 658 2140 (2008) 440 (2014) 838 449 471 483 656 1080 1110 1830
2020-09-17 01:30 3.77 658 2140 (2008) 440 (2014) 838 449 471 483 656 1080 1110 1830
2020-09-17 00:30 3.77 658 2140 (2008) 440 (2014) 838 449 471 483 656 1080 1110 1830
2020-09-16 23:30 3.76 653 1800 (2008) 430 (2014) 771 437 464 479 570 1100 1120 1600
2020-09-16 22:30 3.76 653 1800 (2008) 430 (2014) 771 437 464 479 570 1100 1120 1600
2020-09-16 21:30 3.76 653 1800 (2008) 430 (2014) 771 437 464 479 570 1100 1120 1600
2020-09-16 20:30 3.75 647 1800 (2008) 430 (2014) 771 437 464 479 570 1100 1120 1600
2020-09-16 19:30 3.75 647 1800 (2008) 430 (2014) 771 437 464 479 570 1100 1120 1600
2020-09-16 18:30 3.74 642 1800 (2008) 430 (2014) 771 437 464 479 570 1100 1120 1600
2020-09-16 17:30 3.73 637 1800 (2008) 430 (2014) 771 437 464 479 570 1100 1120 1600
2020-09-16 16:30 3.72 631 1800 (2008) 430 (2014) 771 437 464 479 570 1100 1120 1600
2020-09-16 15:30 3.71 626 1800 (2008) 430 (2014) 771 437 464 479 570 1100 1120 1600
2020-09-16 14:30 3.71 626 1800 (2008) 430 (2014) 771 437 464 479 570 1100 1120 1600
2020-09-16 13:30 3.71 626 1800 (2008) 430 (2014) 771 437 464 479 570 1100 1120 1600
2020-09-16 12:30 3.71 626 1800 (2008) 430 (2014) 771 437 464 479 570 1100 1120 1600
2020-09-16 11:30 3.70 620 1800 (2008) 430 (2014) 771 437 464 479 570 1100 1120 1600
2020-09-16 10:30 3.70 620 1800 (2008) 430 (2014) 771 437 464 479 570 1100 1120 1600
2020-09-16 09:30 3.70 620 1800 (2008) 430 (2014) 771 437 464 479 570 1100 1120 1600
2020-09-16 08:30 3.70 620 1800 (2008) 430 (2014) 771 437 464 479 570 1100 1120 1600
2020-09-16 07:30 3.70 620 1800 (2008) 430 (2014) 771 437 464 479 570 1100 1120 1600
2020-09-16 06:30 3.70 620 1800 (2008) 430 (2014) 771 437 464 479 570 1100 1120 1600
2020-09-16 05:30 3.70 620 1800 (2008) 430 (2014) 771 437 464 479 570 1100 1120 1600
2020-09-16 04:30 3.70 620 1800 (2008) 430 (2014) 771 437 464 479 570 1100 1120 1600
2020-09-16 03:30 3.70 620 1800 (2008) 430 (2014) 771 437 464 479 570 1100 1120 1600
2020-09-16 02:30 3.70 620 1800 (2008) 430 (2014) 771 437 464 479 570 1100 1120 1600
2020-09-16 01:30 3.70 620 1800 (2008) 430 (2014) 771 437 464 479 570 1100 1120 1600
2020-09-16 00:30 3.70 620 1800 (2008) 430 (2014) 771 437 464 479 570 1100 1120 1600

A total of 168 rows are displayed for years 2008 through 2019.